Accueil
METAR-TAF:

METAR-TAF

Aéroports :

Aéroport international de Banja Luka

Banja Luka, Bosnie-Herzégovine

latitude: 44-47N, longitude: 017-13E, altitude: 156 m

Observation

Le bulletin a été fait il y a 18 minutes, à 12:00 UTC
Vent 4 kt de nord
Température 13°C
Humidité 51%
Pression 1015 hPa
Visibilité 10 km ou plus
pas de nuages en-dessous de 1500 mètres et pas de cumulonimbus.

METAR: LQBK 281200Z 35004KT CAVOK 13/03 Q1015 NOSIG

Heure: 13:18 (12:18 UTC)

Prévision

Le bulletin a été fait il y a 1 heure et 18 minutes, à 11:00 UTC
Prévision valable du 28 à 12 UTC au 29 à 12 UTC
Vent 2 kt de direction variable
Visibilité: 7000 m
Probabilité 40%
du 29 à 02 UTC au 29 à 07 UTC
Visibilité: 3000 m
brume
Temporairement
du 29 à 10 UTC au 29 à 12 UTC
Vent 10 kt de nord-ouest

TAF: LQBK 281100Z 2812/2912 VRB02KT 7000 NSC TX15/2814Z TN02/2905Z PROB40 2902/2907 3000 BR TEMPO 2910/2912 32010KT

Observations et prévisions météorologiques de plus de 4000 aéroports (messages METAR et TAF).

Les stations disponibles sont représentées par des disques jaunes et rouges sur la carte.

Passer la souris dessus pour voir le nom de la station.

Cliquer dessus pour voir les observations et prévisions météorologiques.

Pour changer de carte: cliquez sur les boutons verts avec une croix noire pour zoomer, sur le bouton vert avec un tiret pour effectuer un zoom arrière, ou sur les flèches vertes pour les cartes adjacentes.


METAR-TAF: